Time;durP1;ratioP1;P1;durP2;ratioP2;P2;SDS_P1;SDS_P2;PMS_P1;PMS_P2;Temp;Humidity;BMP_temperature;BMP_pressure;BME280_temperature;BME280_humidity;BME280_pressure;Samples;Min_cycle;Max_cycle;Signal;HPM_P1;HPM_P2
2023/10/18 00:02:03;;;;;;;0.70;0.70;;;;;;;8.73;100.00;94770.78;5051050;28;20210;-77
2023/10/18 00:04:29;;;;;;;0.10;0.10;;;;;;;8.80;100.00;94771.09;5050874;28;20210;-76
2023/10/18 00:06:56;;;;;;;0.68;0.68;;;;;;;8.80;100.00;94771.09;5051468;28;20269;-76
2023/10/18 00:09:45;;;;;;;0.20;0.20;;;;;;;8.87;100.00;94766.06;5050337;28;20207;-75
2023/10/18 00:12:16;;;;;;;0.30;0.30;;;;;;;8.89;100.00;94763.81;5050822;28;20294;-76
2023/10/18 00:14:44;;;;;;;1.15;0.88;;;;;;;8.91;100.00;94767.00;5051102;28;20687;-76
2023/10/18 00:17:12;;;;;;;0.20;0.20;;;;;;;8.81;100.00;94767.31;5050894;28;20219;-78
2023/10/18 00:19:39;;;;;;;0.25;0.25;;;;;;;8.82;100.00;94758.09;5060087;28;20226;-76
2023/10/18 00:22:09;;;;;;;0.20;0.20;;;;;;;8.87;100.00;94760.66;5070595;28;20206;-75
2023/10/18 00:24:39;;;;;;;0.68;0.68;;;;;;;8.89;100.00;94763.81;5071053;28;20746;-75
2023/10/18 00:27:09;;;;;;;1.75;0.52;;;;;;;8.92;100.00;94755.09;5060040;28;20210;-75
2023/10/18 00:29:35;;;;;;;0.40;0.40;;;;;;;8.91;100.00;94758.91;5070436;28;20206;-77
2023/10/18 00:32:03;;;;;;;0.20;0.20;;;;;;;8.86;100.00;94742.84;5053189;28;20219;-76
2023/10/18 00:34:32;;;;;;;0.35;0.35;;;;;;;8.90;100.00;94749.22;5050728;28;20289;-77
2023/10/18 00:36:59;;;;;;;0.50;0.50;;;;;;;8.90;100.00;94743.81;5050729;28;20580;-76
2023/10/18 00:39:28;;;;;;;0.40;0.40;;;;;;;8.92;100.00;94747.00;5050422;28;20228;-76
2023/10/18 00:42:03;;;;;;;0.35;0.35;;;;;;;8.93;100.00;94737.78;5050355;28;20219;-76
2023/10/18 00:44:31;;;;;;;0.65;0.55;;;;;;;8.89;100.00;94747.63;5056241;28;20648;-76
2023/10/18 00:46:58;;;;;;;0.20;0.20;;;;;;;8.96;100.00;94744.47;5050818;28;20553;-76
2023/10/18 00:49:25;;;;;;;0.50;0.50;;;;;;;9.02;100.00;94735.13;5064383;28;20637;-76
2023/10/18 00:51:52;;;;;;;0.32;0.32;;;;;;;8.95;100.00;94740.97;5070264;28;20218;-76
2023/10/18 00:54:19;;;;;;;0.20;0.20;;;;;;;9.04;100.00;94743.69;5069893;28;20203;-76
2023/10/18 00:56:47;;;;;;;0.40;0.40;;;;;;;9.04;100.00;94743.69;5062094;28;20207;-77
2023/10/18 00:59:21;;;;;;;0.20;0.20;;;;;;;8.99;100.00;94750.03;5049669;28;20211;-76
2023/10/18 01:01:54;;;;;;;0.25;0.25;;;;;;;8.86;100.00;94753.66;5050081;28;20206;-78
2023/10/18 01:04:24;;;;;;;0.35;0.35;;;;;;;8.89;100.00;94751.13;5052987;28;20210;-76
2023/10/18 01:06:51;;;;;;;0.30;0.30;;;;;;;8.92;100.00;94757.78;5070378;28;20210;-77
2023/10/18 01:09:18;;;;;;;0.30;0.30;;;;;;;8.85;100.00;94754.78;5065963;28;20634;-76
2023/10/18 01:11:47;;;;;;;1.10;0.57;;;;;;;8.86;100.00;94759.06;5050474;28;20217;-76
2023/10/18 01:14:17;;;;;;;0.17;0.17;;;;;;;8.89;100.00;94758.41;5070122;28;20215;-76
2023/10/18 01:16:45;;;;;;;0.52;0.52;;;;;;;8.88;100.00;94751.44;5070106;28;20260;-77
2023/10/18 01:19:14;;;;;;;0.30;0.30;;;;;;;8.83;100.00;94746.19;5069889;28;20242;-76
2023/10/18 01:21:45;;;;;;;0.47;0.47;;;;;;;8.84;100.00;94750.47;5070186;28;20497;-76
2023/10/18 01:24:15;;;;;;;0.20;0.20;;;;;;;8.78;100.00;94743.63;5070088;28;20210;-76
2023/10/18 01:26:45;;;;;;;0.57;0.57;;;;;;;8.75;100.00;94738.81;5056545;28;20203;-76
2023/10/18 01:29:12;;;;;;;0.73;0.73;;;;;;;8.86;100.00;94748.25;5049662;28;20211;-76
2023/10/18 01:31:44;;;;;;;0.28;0.28;;;;;;;8.89;100.00;94753.00;5049999;28;20208;-76
2023/10/18 01:34:11;;;;;;;0.73;0.73;;;;;;;8.93;100.00;94758.59;5050039;28;20269;-76
2023/10/18 01:36:40;;;;;;;0.20;0.20;;;;;;;8.93;100.00;94753.19;5050019;28;20414;-76
2023/10/18 01:39:18;;;;;;;0.43;0.43;;;;;;;8.88;100.00;94754.16;5050413;28;20672;-75
2023/10/18 01:41:48;;;;;;;0.52;0.40;;;;;;;8.88;100.00;94737.94;5045638;28;20215;-75
2023/10/18 01:44:27;;;;;;;0.80;0.80;;;;;;;8.83;100.00;94746.19;5050393;28;20663;-74
2023/10/18 01:46:55;;;;;;;0.40;0.40;;;;;;;8.75;100.00;94741.53;5054213;28;20199;-75
2023/10/18 01:49:25;;;;;;;0.10;0.10;;;;;;;8.87;100.00;94749.84;5056044;28;20572;-75
2023/10/18 01:51:54;;;;;;;0.40;0.40;;;;;;;8.72;100.00;94748.38;5049959;28;20250;-74
2023/10/18 01:54:25;;;;;;;0.20;0.20;;;;;;;8.76;100.00;94748.53;5049500;28;20217;-74
2023/10/18 01:56:57;;;;;;;0.98;0.90;;;;;;;8.75;100.00;94746.94;5049730;28;20602;-74
2023/10/18 01:59:27;;;;;;;0.30;0.30;;;;;;;8.71;100.00;94743.28;5059255;28;20681;-74
2023/10/18 02:01:56;;;;;;;0.20;0.20;;;;;;;8.70;100.00;94750.59;5049774;28;20568;-75
2023/10/18 02:04:25;;;;;;;0.50;0.50;;;;;;;8.64;100.00;94748.31;5049624;28;20626;-74
2023/10/18 02:06:55;;;;;;;2.83;0.43;;;;;;;8.68;100.00;94746.59;5050077;28;20610;-73
2023/10/18 02:09:22;;;;;;;3.03;0.55;;;;;;;8.63;100.00;94754.84;5049645;28;20269;-76
2023/10/18 02:11:49;;;;;;;0.20;0.20;;;;;;;8.48;100.00;94754.13;5060473;28;20294;-74
2023/10/18 02:14:18;;;;;;;0.40;0.40;;;;;;;8.55;100.00;94765.31;5050703;28;20207;-76
2023/10/18 02:16:46;;;;;;;1.55;0.98;;;;;;;8.56;100.00;94749.91;5052107;28;20212;-75
2023/10/18 02:19:15;;;;;;;3.50;1.92;;;;;;;8.54;100.00;94752.09;5049441;28;20231;-76
2023/10/18 02:21:42;;;;;;;4.30;2.08;;;;;;;8.60;100.00;94750.09;5047522;28;20230;-75
2023/10/18 02:24:12;;;;;;;4.63;2.38;;;;;;;8.57;100.00;94750.69;5063592;28;20273;-75
2023/10/18 02:26:48;;;;;;;3.75;2.00;;;;;;;8.60;100.00;94750.88;5053330;28;20238;-75
2023/10/18 02:29:16;;;;;;;3.33;2.75;;;;;;;8.63;100.00;94752.94;5051314;28;20248;-76
2023/10/18 02:31:45;;;;;;;3.40;2.20;;;;;;;8.62;100.00;94743.22;5045792;28;20200;-75
2023/10/18 02:34:14;;;;;;;3.45;2.33;;;;;;;8.62;100.00;94747.84;5052329;28;20199;-75
2023/10/18 02:36:47;;;;;;;4.43;2.20;;;;;;;8.63;100.00;94746.72;5050434;28;20214;-75
2023/10/18 02:39:21;;;;;;;3.15;2.10;;;;;;;8.55;100.00;94748.31;5067007;28;20304;-76
2023/10/18 02:41:49;;;;;;;0.45;0.45;;;;;;;8.57;100.00;94748.00;5052657;28;20607;-75
2023/10/18 02:44:21;;;;;;;0.63;0.63;;;;;;;8.47;100.00;94739.03;5057858;28;20631;-75
2023/10/18 02:46:51;;;;;;;1.58;0.70;;;;;;;8.50;100.00;94757.31;5048249;28;20791;-75
2023/10/18 02:49:18;;;;;;;0.28;0.28;;;;;;;8.49;100.00;94749.53;5051880;28;20207;-75
2023/10/18 02:51:45;;;;;;;0.20;0.20;;;;;;;8.53;100.00;94740.50;5063621;28;20262;-75
2023/10/18 02:54:16;;;;;;;0.25;0.25;;;;;;;8.57;100.00;94734.50;5052663;28;20622;-75
2023/10/18 02:56:50;;;;;;;0.30;0.30;;;;;;;8.58;100.00;94744.19;5052374;28;20232;-75
2023/10/18 02:59:18;;;;;;;0.20;0.20;;;;;;;8.54;100.00;94728.59;5053761;28;20620;-75
2023/10/18 03:01:48;;;;;;;0.38;0.38;;;;;;;8.49;100.00;94739.53;5052467;28;20227;-75
2023/10/18 03:04:17;;;;;;;0.20;0.20;;;;;;;8.47;100.00;94738.28;5051979;28;20204;-76
2023/10/18 03:06:46;;;;;;;0.40;0.40;;;;;;;8.50;100.00;94735.72;5051522;28;20211;-75
2023/10/18 03:09:26;;;;;;;0.40;0.40;;;;;;;8.44;100.00;94739.69;5051657;28;20235;-75
2023/10/18 03:11:54;;;;;;;0.38;0.38;;;;;;;8.43;100.00;94735.41;5054983;28;20203;-76
2023/10/18 03:14:23;;;;;;;0.38;0.38;;;;;;;8.46;100.00;94742.88;5048792;28;20215;-76
2023/10/18 03:16:54;;;;;;;1.17;0.30;;;;;;;8.36;100.00;94729.63;5053469;28;20204;-75
2023/10/18 03:19:24;;;;;;;0.20;0.20;;;;;;;8.36;100.00;94740.44;5044250;28;20664;-73
2023/10/18 03:21:54;;;;;;;0.30;0.30;;;;;;;8.34;100.00;94731.84;5054470;28;20319;-74
2023/10/18 03:24:22;;;;;;;0.65;0.65;;;;;;;8.37;100.00;94725.03;5048091;28;20553;-75
2023/10/18 03:26:49;;;;;;;0.20;0.20;;;;;;;8.33;100.00;94735.69;5050206;28;20290;-76
2023/10/18 03:29:16;;;;;;;0.32;0.28;;;;;;;8.36;100.00;94739.63;5054942;28;20562;-75
2023/10/18 03:31:43;;;;;;;0.30;0.30;;;;;;;8.39;100.00;94733.63;5052567;28;20231;-75
2023/10/18 03:34:15;;;;;;;0.50;0.50;;;;;;;8.43;100.00;94724.59;5052367;28;20215;-74
2023/10/18 03:36:51;;;;;;;0.20;0.20;;;;;;;8.52;100.00;94725.41;5051602;28;20196;-74
2023/10/18 03:39:19;;;;;;;0.20;0.20;;;;;;;8.54;100.00;94720.50;5051298;28;20234;-74
2023/10/18 03:41:50;;;;;;;0.20;0.20;;;;;;;8.51;100.00;94714.94;5051191;28;20231;-75
2023/10/18 03:44:21;;;;;;;0.35;0.35;;;;;;;8.45;100.00;94711.59;5049297;28;20202;-75
2023/10/18 03:46:48;;;;;;;0.20;0.20;;;;;;;8.47;100.00;94708.59;5052577;28;20582;-75
2023/10/18 03:49:31;;;;;;;1.58;0.75;;;;;;;8.47;100.00;94709.34;5051101;28;20215;-76
2023/10/18 03:52:06;;;;;;;0.20;0.20;;;;;;;8.47;100.00;94714.75;5047384;28;20196;-75
2023/10/18 03:54:45;;;;;;;0.30;0.30;;;;;;;8.49;100.00;94720.63;5045081;28;20636;-75
2023/10/18 03:57:16;;;;;;;0.73;0.73;;;;;;;8.43;100.00;94718.41;5050229;28;20209;-75
2023/10/18 03:59:45;;;;;;;1.25;0.93;;;;;;;8.48;100.00;94726.34;5050594;28;20239;-75
2023/10/18 04:02:17;;;;;;;0.45;0.45;;;;;;;8.48;100.00;94705.53;5050997;28;20231;-75
2023/10/18 04:04:48;;;;;;;0.30;0.25;;;;;;;8.48;100.00;94700.16;5049562;28;20570;-74
2023/10/18 04:07:20;;;;;;;0.20;0.20;;;;;;;8.50;100.00;94697.94;5051152;28;20623;-75
2023/10/18 04:09:53;;;;;;;0.43;0.43;;;;;;;8.60;100.00;94702.28;5051073;28;20306;-75
2023/10/18 04:12:22;;;;;;;0.13;0.13;;;;;;;8.59;100.00;94694.47;5050779;28;20286;-75
2023/10/18 04:14:55;;;;;;;0.30;0.30;;;;;;;8.58;100.00;94692.88;5051001;28;20298;-75
2023/10/18 04:17:32;;;;;;;0.10;0.10;;;;;;;8.48;100.00;94700.16;5050581;28;20607;-75
2023/10/18 04:20:00;;;;;;;0.20;0.20;;;;;;;8.48;100.00;94696.66;5051454;28;20260;-75
2023/10/18 04:22:30;;;;;;;0.32;0.32;;;;;;;8.45;100.00;94695.41;5050723;28;20227;-75
2023/10/18 04:24:57;;;;;;;0.25;0.25;;;;;;;8.43;100.00;94696.81;5051130;28;20242;-75
2023/10/18 04:27:26;;;;;;;0.10;0.10;;;;;;;8.39;100.00;94702.03;5057324;28;20210;-76
2023/10/18 04:29:55;;;;;;;0.20;0.20;;;;;;;8.41;100.00;94693.63;5070781;28;20286;-76
2023/10/18 04:32:23;;;;;;;0.20;0.20;;;;;;;8.47;100.00;94701.25;5051042;28;20576;-76
2023/10/18 04:34:50;;;;;;;0.20;0.20;;;;;;;8.46;100.00;94702.38;5050557;28;20243;-75
2023/10/18 04:37:19;;;;;;;0.20;0.20;;;;;;;8.46;100.00;94701.59;5050479;28;20656;-75
2023/10/18 04:39:47;;;;;;;0.20;0.20;;;;;;;8.51;100.00;94699.53;5050131;28;20278;-75
2023/10/18 04:42:16;;;;;;;0.50;0.50;;;;;;;8.48;100.00;94710.94;5051750;28;20263;-75
2023/10/18 04:44:48;;;;;;;0.20;0.20;;;;;;;8.44;100.00;94699.19;5057043;28;20245;-75
2023/10/18 04:47:15;;;;;;;0.15;0.15;;;;;;;8.42;100.00;94701.41;5071179;28;20222;-75
2023/10/18 04:49:50;;;;;;;0.20;0.20;;;;;;;8.42;100.00;94696.00;5070784;28;20207;-75
2023/10/18 04:52:28;;;;;;;0.20;0.20;;;;;;;8.44;100.00;94704.59;5070335;28;20213;-76
2023/10/18 04:55:04;;;;;;;0.20;0.20;;;;;;;8.43;100.00;94713.00;5050605;28;20294;-75
2023/10/18 04:57:34;;;;;;;0.20;0.20;;;;;;;8.43;100.00;94719.19;5050455;28;20207;-75
2023/10/18 05:00:11;;;;;;;0.77;0.77;;;;;;;8.42;100.00;94714.91;5050449;28;20553;-75
2023/10/18 05:02:38;;;;;;;1.15;1.05;;;;;;;8.43;100.00;94727.28;5050067;28;20219;-75
2023/10/18 05:05:10;;;;;;;2.08;1.85;;;;;;;8.53;100.00;94735.13;5050306;28;20207;-75
2023/10/18 05:07:41;;;;;;;3.97;2.25;;;;;;;8.55;100.00;94741.00;5050447;28;20859;-75
2023/10/18 05:10:16;;;;;;;2.85;2.03;;;;;;;8.67;100.00;94748.50;5049927;28;20207;-75
2023/10/18 05:12:53;;;;;;;0.20;0.20;;;;;;;8.71;100.00;94756.78;5055863;28;20202;-75
2023/10/18 05:15:28;;;;;;;0.30;0.30;;;;;;;8.74;100.00;94761.56;5069047;28;20271;-76
2023/10/18 05:18:04;;;;;;;0.20;0.20;;;;;;;8.75;100.00;94755.84;5037262;28;20246;-75
2023/10/18 05:20:46;;;;;;;0.50;0.50;;;;;;;8.78;100.00;94763.31;5056813;28;20211;-77
2023/10/18 05:23:21;;;;;;;0.20;0.20;;;;;;;8.99;100.00;94773.56;5065217;28;20652;-77
2023/10/18 05:25:56;;;;;;;0.20;0.20;;;;;;;9.14;100.00;94779.34;5053627;28;20214;-77
2023/10/18 05:28:26;;;;;;;0.35;0.35;;;;;;;9.04;100.00;94776.91;5048504;28;20203;-77
2023/10/18 05:34:01;;;;;;;0.13;0.13;;;;;;;10.61;100.00;94790.94;5049275;28;20215;-79
2023/10/18 05:36:54;;;;;;;0.20;0.20;;;;;;;10.17;100.00;94780.47;5043880;28;20205;-79
2023/10/18 05:39:28;;;;;;;0.35;0.35;;;;;;;9.81;100.00;94797.88;5049184;28;20542;-78
2023/10/18 05:42:03;;;;;;;0.52;0.52;;;;;;;9.62;100.00;94798.16;5060925;28;20312;-80
2023/10/18 05:44:30;;;;;;;0.20;0.20;;;;;;;9.53;100.00;94801.97;5054326;28;20282;-79
2023/10/18 05:46:59;;;;;;;0.20;0.20;;;;;;;9.41;100.00;94801.81;5048876;28;20212;-79
2023/10/18 05:49:28;;;;;;;0.30;0.30;;;;;;;9.48;100.00;94796.72;5048084;28;20618;-80
2023/10/18 05:51:59;;;;;;;0.30;0.30;;;;;;;9.48;100.00;94785.91;5051010;28;20207;-80
2023/10/18 05:54:28;;;;;;;1.00;1.00;;;;;;;9.43;100.00;94783.38;5056616;28;20209;-79
2023/10/18 05:56:56;;;;;;;0.60;0.60;;;;;;;9.65;100.00;94785.13;5070324;28;20207;-79
2023/10/18 05:59:31;;;;;;;0.20;0.20;;;;;;;9.71;100.00;94781.94;5051954;28;20290;-80
2023/10/18 06:01:58;;;;;;;0.20;0.20;;;;;;;9.63;100.00;94778.13;5052523;28;20718;-80
2023/10/18 06:04:25;;;;;;;2.95;0.85;;;;;;;9.75;100.00;94785.59;5054993;28;20199;-80
2023/10/18 06:06:54;;;;;;;0.20;0.20;;;;;;;9.63;100.00;94780.03;5054399;28;20207;-80
2023/10/18 06:09:27;;;;;;;0.10;0.10;;;;;;;9.49;100.00;94787.50;5053179;28;20245;-79
2023/10/18 06:11:56;;;;;;;0.20;0.20;;;;;;;9.48;100.00;94785.91;5054524;28;20192;-80
2023/10/18 06:14:25;;;;;;;0.15;0.15;;;;;;;9.52;100.00;94781.47;5051936;28;20207;-80
2023/10/18 06:17:06;;;;;;;0.20;0.20;;;;;;;9.66;100.00;94787.50;5053101;28;20231;-77
2023/10/18 06:19:36;;;;;;;0.13;0.13;;;;;;;9.59;100.00;94784.47;5048928;28;20243;-79
2023/10/18 06:22:13;;;;;;;0.30;0.30;;;;;;;9.70;100.00;94783.06;5054779;28;20767;-81
2023/10/18 06:24:40;;;;;;;0.20;0.20;;;;;;;9.79;100.00;94789.28;5052574;28;20207;-78
2023/10/18 06:27:08;;;;;;;0.75;0.68;;;;;;;10.08;100.00;94779.72;5050663;28;20199;-79
2023/10/18 06:29:36;;;;;;;0.20;0.20;;;;;;;10.41;100.00;94775.34;5051119;28;20210;-79
2023/10/18 06:32:05;;;;;;;1.48;0.50;;;;;;;10.42;100.00;94776.94;5054967;28;20303;-79
2023/10/18 06:34:33;;;;;;;0.20;0.20;;;;;;;10.39;100.00;94784.94;5052145;28;20199;-80
2023/10/18 06:37:07;;;;;;;0.52;0.43;;;;;;;10.37;100.00;94785.25;5072484;28;20210;-81
2023/10/18 06:39:35;;;;;;;0.10;0.10;;;;;;;10.39;100.00;94788.41;5072118;28;20321;-81
2023/10/18 06:42:06;;;;;;;0.20;0.20;;;;;;;10.61;100.00;94793.63;5072995;28;20230;-79
2023/10/18 06:44:34;;;;;;;0.30;0.30;;;;;;;10.74;100.00;94791.03;5072427;28;20558;-80
2023/10/18 06:47:06;;;;;;;0.20;0.20;;;;;;;10.97;100.00;94792.38;5072804;28;20207;-80
2023/10/18 06:49:33;;;;;;;0.10;0.10;;;;;;;10.84;100.00;94798.81;5055809;28;20640;-81
2023/10/18 06:52:04;;;;;;;0.32;0.32;;;;;;;10.83;100.00;94799.94;5052496;28;20208;-80
2023/10/18 06:54:38;;;;;;;0.30;0.30;;;;;;;10.85;100.00;94800.41;5056434;28;20560;-80
2023/10/18 06:57:15;;;;;;;0.20;0.20;;;;;;;10.77;100.00;94798.53;5072705;28;20210;-76
2023/10/18 06:59:46;;;;;;;0.13;0.13;;;;;;;11.10;100.00;94799.50;5072327;28;20313;-76
2023/10/18 07:02:13;;;;;;;0.25;0.25;;;;;;;11.03;100.00;94799.22;5048114;28;20212;-76
2023/10/18 07:04:46;;;;;;;0.28;0.28;;;;;;;11.16;100.00;94802.84;5036862;28;20203;-75
2023/10/18 07:07:19;;;;;;;0.38;0.38;;;;;;;11.06;100.00;94801.28;5051649;28;20295;-74
2023/10/18 07:09:49;;;;;;;0.20;0.20;;;;;;;11.30;100.00;94804.19;5052352;28;20210;-74
2023/10/18 07:12:17;;;;;;;0.35;0.35;;;;;;;11.27;100.00;94810.25;5051563;28;20296;-76
2023/10/18 07:14:45;;;;;;;0.10;0.10;;;;;;;11.05;100.00;94810.53;5052242;28;20565;-76
2023/10/18 07:17:14;;;;;;;0.20;0.20;;;;;;;10.83;100.00;94811.56;5052039;28;20670;-76
2023/10/18 07:19:48;;;;;;;2.63;1.13;;;;;;;10.76;100.00;94807.78;5051683;28;20242;-76
2023/10/18 07:22:19;;;;;;;0.20;0.20;;;;;;;10.88;100.00;94805.19;5051032;28;20219;-79
2023/10/18 07:24:53;;;;;;;0.40;0.40;;;;;;;10.89;100.00;94812.19;5052004;28;20214;-79
2023/10/18 07:27:20;;;;;;;0.40;0.40;;;;;;;11.27;100.00;94809.47;5050990;28;20225;-80
2023/10/18 07:29:49;;;;;;;0.75;0.50;;;;;;;11.36;100.00;94793.94;5051974;28;20576;-83
2023/10/18 07:32:20;;;;;;;0.30;0.30;;;;;;;11.32;100.00;94809.28;5051072;28;20269;-81
2023/10/18 07:34:48;;;;;;;0.30;0.30;;;;;;;11.41;100.00;94812.75;5051599;28;20225;-77
2023/10/18 07:37:24;;;;;;;0.20;0.20;;;;;;;11.51;100.00;94801.50;5051141;28;20223;-77
2023/10/18 07:39:56;;;;;;;0.30;0.30;;;;;;;11.19;100.00;94805.69;5051250;28;20239;-77
2023/10/18 07:42:26;;;;;;;0.65;0.65;;;;;;;10.94;100.00;94809.28;5050240;28;20226;-81
2023/10/18 07:44:55;;;;;;;0.55;0.55;;;;;;;11.11;100.00;94808.44;5045998;28;20211;-84
2023/10/18 07:47:25;;;;;;;0.25;0.25;;;;;;;11.32;100.00;94804.66;5051267;28;20614;-82
2023/10/18 07:49:55;;;;;;;0.15;0.15;;;;;;;11.52;100.00;94794.97;5051342;28;20215;-78
2023/10/18 07:52:22;;;;;;;0.40;0.40;;;;;;;11.84;100.00;94796.22;5050837;28;20234;-83
2023/10/18 07:54:49;;;;;;;1.65;0.98;;;;;;;12.05;100.00;94783.41;5051186;28;20219;-81
2023/10/18 07:57:17;;;;;;;1.15;0.75;;;;;;;12.23;100.00;94781.34;5050957;28;20215;-80
2023/10/18 07:59:47;;;;;;;1.05;1.00;;;;;;;12.10;100.00;94785.94;5049872;28;20219;-81
2023/10/18 08:02:23;;;;;;;1.65;1.55;;;;;;;12.07;100.00;94785.78;5050585;28;20242;-84
2023/10/18 08:04:50;;;;;;;0.20;0.20;;;;;;;12.35;100.00;94794.97;5051174;28;20305;-82
2023/10/18 08:07:20;;;;;;;0.65;0.65;;;;;;;12.26;100.00;94790.75;5051039;28;20324;-78
2023/10/18 08:09:48;;;;;;;0.25;0.25;;;;;;;12.08;100.00;94792.81;5038232;28;20285;-80
2023/10/18 08:12:28;;;;;;;0.30;0.30;;;;;;;11.95;100.00;94789.25;5050233;28;20529;-81
2023/10/18 08:14:55;;;;;;;0.30;0.30;;;;;;;12.12;100.00;94792.94;5050132;28;20207;-83
2023/10/18 08:20:40;;;;;;;0.20;0.20;;;;;;;12.74;100.00;94799.03;5058524;28;20298;-81
2023/10/18 08:23:18;;;;;;;1.08;0.63;;;;;;;12.80;100.00;94803.13;5049597;28;20258;-81
2023/10/18 08:25:51;;;;;;;0.65;0.65;;;;;;;12.51;100.00;94797.84;5049967;28;20248;-81
2023/10/18 08:28:18;;;;;;;0.47;0.47;;;;;;;12.66;100.00;94802.66;5049180;28;20225;-76
2023/10/18 08:33:39;;;;;;;0.15;0.15;;;;;;;12.56;100.00;94808.50;5143082;27;20545;-79
2023/10/18 08:36:09;;;;;;;0.22;0.22;;;;;;;12.46;100.00;94803.47;5127592;28;20209;-79
2023/10/18 08:38:36;;;;;;;0.65;0.65;;;;;;;12.32;100.00;94805.69;5127886;27;20216;-81
2023/10/18 08:41:16;;;;;;;0.20;0.20;;;;;;;12.33;100.00;94804.56;5149139;27;20236;-79
2023/10/18 08:43:58;;;;;;;0.20;0.20;;;;;;;12.47;100.00;94807.78;5141870;27;20227;-80
2023/10/18 08:46:26;;;;;;;0.20;0.20;;;;;;;12.75;100.00;94816.94;5148362;27;20196;-80
2023/10/18 08:48:57;;;;;;;0.20;0.20;;;;;;;13.10;100.00;94808.38;5148527;27;20664;-80
2023/10/18 08:51:27;;;;;;;0.30;0.30;;;;;;;13.25;100.00;94815.13;5148073;27;20291;-79
2023/10/18 08:53:56;;;;;;;0.88;0.63;;;;;;;13.19;100.00;94809.09;5147759;27;20196;-79
2023/10/18 08:56:29;;;;;;;1.13;1.02;;;;;;;12.95;100.00;94817.22;5148361;27;20583;-80
2023/10/18 08:58:56;;;;;;;0.40;0.40;;;;;;;12.82;100.00;94814.47;5148339;27;20200;-80
2023/10/18 09:01:24;;;;;;;1.67;1.23;;;;;;;13.02;100.00;94814.72;5140820;27;20291;-80
2023/10/18 09:03:49;;;;;;;0.40;0.40;;;;;;;13.25;100.00;94813.19;5138949;27;20211;-81
2023/10/18 09:06:30;;;;;;;0.52;0.52;;;;;;;13.47;100.00;94809.22;5128508;27;20309;-79
2023/10/18 09:09:05;;;;;;;0.20;0.20;;;;;;;13.21;100.00;94812.28;5141318;27;20204;-81
2023/10/18 09:11:34;;;;;;;0.20;0.20;;;;;;;13.46;100.00;94819.31;5139435;27;20193;-80
2023/10/18 09:14:09;;;;;;;0.10;0.10;;;;;;;13.85;100.00;94817.00;5143119;27;20647;-73
2023/10/18 09:16:37;;;;;;;0.45;0.28;;;;;;;13.88;100.00;94819.81;5148033;27;20279;-75
2023/10/18 09:19:05;;;;;;;0.30;0.30;;;;;;;14.39;100.00;94817.41;5148022;27;20232;-73
2023/10/18 09:21:43;;;;;;;0.52;0.52;;;;;;;14.39;100.00;94816.59;5147962;27;20564;-74
2023/10/18 09:24:11;;;;;;;0.13;0.13;;;;;;;14.20;100.00;94815.31;5147834;27;20215;-73
2023/10/18 09:26:41;;;;;;;1.30;0.60;;;;;;;14.01;100.00;94827.97;5147675;27;20203;-74
2023/10/18 09:29:09;;;;;;;0.28;0.28;;;;;;;14.31;100.00;94818.34;5147818;27;20310;-74
2023/10/18 09:31:37;;;;;;;0.50;0.50;;;;;;;14.02;100.00;94818.66;5147760;27;20286;-74
2023/10/18 09:34:07;;;;;;;0.20;0.20;;;;;;;14.24;100.00;94818.94;5147934;27;20283;-74
2023/10/18 09:36:39;;;;;;;0.30;0.30;;;;;;;14.32;100.00;94810.97;5147309;27;20235;-73
2023/10/18 09:39:09;;;;;;;0.60;0.60;;;;;;;14.68;100.00;94810.81;5147854;27;20232;-73
2023/10/18 09:41:37;;;;;;;0.90;0.90;;;;;;;15.06;100.00;94806.75;5147373;27;20207;-74
2023/10/18 09:44:06;;;;;;;0.40;0.40;;;;;;;14.66;100.00;94807.66;5132275;27;20197;-73
2023/10/18 09:46:34;;;;;;;0.20;0.20;;;;;;;14.32;100.00;94800.06;5133235;27;20291;-74
2023/10/18 09:49:04;;;;;;;0.52;0.52;;;;;;;14.29;100.00;94800.75;5133604;27;20215;-79
2023/10/18 09:51:33;;;;;;;0.20;0.20;;;;;;;14.33;100.00;94801.66;5133261;27;20224;-79
2023/10/18 09:54:07;;;;;;;0.30;0.30;;;;;;;14.17;100.00;94793.41;5133355;27;20243;-78
2023/10/18 09:56:37;;;;;;;0.55;0.50;;;;;;;14.53;100.00;94795.22;5133394;27;20220;-80
2023/10/18 09:59:08;;;;;;;1.33;1.10;;;;;;;13.94;100.00;94795.84;5133408;27;20197;-81
2023/10/18 10:04:21;;;;;;;0.20;0.20;;;;;;;13.43;100.00;94787.31;5128980;27;20207;-81
2023/10/18 10:06:53;;;;;;;0.30;0.30;;;;;;;13.80;100.00;94784.56;5132943;27;20537;-79
2023/10/18 10:09:29;;;;;;;0.15;0.15;;;;;;;13.64;100.00;94783.69;5133104;27;20217;-79
2023/10/18 10:11:56;;;;;;;0.20;0.20;;;;;;;13.70;100.00;94774.13;5133268;27;20208;-79
2023/10/18 10:14:23;;;;;;;0.20;0.20;;;;;;;13.90;100.00;94770.47;5132995;27;20219;-79
2023/10/18 10:16:54;;;;;;;0.30;0.30;;;;;;;13.88;100.00;94764.56;5132683;27;20224;-80
2023/10/18 10:19:26;;;;;;;0.20;0.20;;;;;;;13.74;100.00;94764.16;5133386;27;20212;-79
2023/10/18 10:21:55;;;;;;;1.48;0.73;;;;;;;14.08;100.00;94758.13;5133260;27;20197;-81
2023/10/18 10:24:31;;;;;;;0.15;0.15;;;;;;;13.86;100.00;94754.00;5133137;27;20283;-80
2023/10/18 10:27:41;;;;;;;0.30;0.30;;;;;;;13.83;100.00;94757.41;5126839;27;20240;-79
2023/10/18 10:30:19;;;;;;;0.65;0.65;;;;;;;14.01;100.00;94755.22;5132989;27;20208;-81
2023/10/18 10:32:47;;;;;;;0.55;0.55;;;;;;;14.01;100.00;94751.69;5114209;27;20237;-80
2023/10/18 10:35:16;;;;;;;1.73;1.08;;;;;;;13.89;100.00;94747.09;5132763;27;20622;-81
2023/10/18 10:37:50;;;;;;;0.30;0.30;;;;;;;13.83;100.00;94753.91;5132033;27;20250;-80
2023/10/18 10:40:36;;;;;;;0.20;0.20;;;;;;;13.89;100.00;94744.38;5126756;27;20249;-80
2023/10/18 10:43:08;;;;;;;0.55;0.55;;;;;;;13.96;100.00;94747.28;5121371;27;20259;-80
2023/10/18 10:45:38;;;;;;;0.52;0.52;;;;;;;13.57;100.00;94742.63;5132002;27;20200;-80
2023/10/18 10:48:36;;;;;;;0.30;0.30;;;;;;;13.71;100.00;94737.59;5123808;27;20217;-80
2023/10/18 10:51:11;;;;;;;0.20;0.20;;;;;;;13.61;100.00;94743.53;5126351;27;20291;-80
2023/10/18 10:53:44;;;;;;;0.47;0.47;;;;;;;13.70;100.00;94750.41;5131930;27;20320;-80
2023/10/18 10:56:19;;;;;;;0.30;0.30;;;;;;;13.76;100.00;94746.34;5128194;27;20322;-81
2023/10/18 10:59:03;;;;;;;0.38;0.38;;;;;;;13.32;100.00;94747.31;5123387;27;20211;-80
2023/10/18 11:02:06;;;;;;;0.13;0.13;;;;;;;13.21;100.00;94747.00;5126662;27;20238;-81
2023/10/18 11:04:58;;;;;;;0.60;0.60;;;;;;;13.27;100.00;94751.06;5129674;27;20254;-81
2023/10/18 11:07:26;;;;;;;0.10;0.10;;;;;;;13.10;100.00;94751.28;5132160;27;20193;-80
2023/10/18 11:09:59;;;;;;;0.30;0.30;;;;;;;13.26;100.00;94744.03;5123362;27;20212;-79
2023/10/18 11:12:29;;;;;;;0.25;0.25;;;;;;;13.25;100.00;94747.91;5127566;27;20567;-80
2023/10/18 11:14:56;;;;;;;0.30;0.30;;;;;;;13.27;100.00;94745.59;5132014;27;20215;-80
2023/10/18 11:17:24;;;;;;;0.20;0.20;;;;;;;13.49;100.00;94747.88;5131455;27;20212;-80
2023/10/18 11:19:53;;;;;;;0.30;0.30;;;;;;;13.92;100.00;94743.69;5131412;27;20205;-79
2023/10/18 11:22:22;;;;;;;0.52;0.47;;;;;;;13.81;100.00;94745.28;5131184;27;20635;-79
2023/10/18 11:24:50;;;;;;;0.20;0.20;;;;;;;13.93;100.00;94745.28;5131877;27;20205;-74
2023/10/18 11:27:18;;;;;;;0.60;0.60;;;;;;;13.87;100.00;94747.44;5132076;27;20213;-78
2023/10/18 11:29:47;;;;;;;4.28;0.75;;;;;;;14.00;100.00;94744.66;5131693;27;20305;-77
2023/10/18 11:32:18;;;;;;;1.98;1.25;;;;;;;13.48;100.00;94746.28;5126441;27;20329;-77
2023/10/18 11:34:45;;;;;;;0.22;0.22;;;;;;;13.49;100.00;94747.88;5124274;27;20558;-77
2023/10/18 11:37:26;;;;;;;0.28;0.28;;;;;;;13.63;100.00;94749.44;5131607;27;20724;-78
2023/10/18 11:39:56;;;;;;;0.20;0.20;;;;;;;13.53;100.00;94748.75;5131363;27;20320;-80
2023/10/18 11:42:23;;;;;;;0.80;0.40;;;;;;;13.33;100.00;94738.81;5129287;27;20204;-79
2023/10/18 11:44:55;;;;;;;1.20;1.10;;;;;;;13.38;100.00;94745.97;5126847;27;20223;-79
2023/10/18 11:47:22;;;;;;;1.45;0.68;;;;;;;13.32;100.00;94742.66;5121725;27;20229;-79
2023/10/18 11:49:53;;;;;;;0.75;0.47;;;;;;;13.56;100.00;94735.59;5127700;27;20228;-78
2023/10/18 11:52:22;;;;;;;0.15;0.15;;;;;;;13.69;100.00;94720.81;5131651;27;20205;-78
2023/10/18 11:54:52;;;;;;;0.30;0.30;;;;;;;14.05;100.00;94725.38;5131372;27;20650;-78
2023/10/18 11:57:26;;;;;;;0.20;0.20;;;;;;;14.21;100.00;94728.94;5131667;27;20216;-78
2023/10/18 11:59:56;;;;;;;0.30;0.30;;;;;;;13.71;100.00;94726.72;5106077;28;20204;-78